Time;durP1;ratioP1;P1;durP2;ratioP2;P2;SDS_P1;SDS_P2;PMS_P1;PMS_P2;Temp;Humidity;BMP_temperature;BMP_pressure;BME280_temperature;BME280_humidity;BME280_pressure;Samples;Min_cycle;Max_cycle;Signal;HPM_P1;HPM_P2
2021/08/16 00:01:00;;;;;;;40.17;25.73;;;;;;;;;;5093602;28;20377;-43
2021/08/16 00:03:26;;;;;;;42.63;26.75;;;;;;;;;;5075161;28;20355;-44
2021/08/16 00:05:52;;;;;;;39.75;25.98;;;;;;;;;;5075142;28;20115;-44
2021/08/16 00:08:18;;;;;;;47.70;27.65;;;;;;;;;;5093128;28;20099;-44
2021/08/16 00:10:44;;;;;;;37.25;25.98;;;;;;;;;;5093076;28;20108;-44
2021/08/16 00:13:10;;;;;;;57.47;31.13;;;;;;;;;;5093016;28;20017;-43
2021/08/16 00:15:36;;;;;;;49.85;28.20;;;;;;;;;;5092998;28;20021;-45
2021/08/16 00:18:03;;;;;;;45.30;28.02;;;;;;;;;;5092886;28;20055;-43
2021/08/16 00:20:30;;;;;;;45.13;28.60;;;;;;;;;;5093095;28;20020;-46
2021/08/16 00:22:56;;;;;;;49.20;30.15;;;;;;;;;;5092987;28;20031;-43
2021/08/16 00:25:22;;;;;;;53.88;29.98;;;;;;;;;;5092860;28;20059;-45
2021/08/16 00:27:48;;;;;;;65.28;37.85;;;;;;;;;;5092914;28;20024;-46
2021/08/16 00:30:15;;;;;;;61.63;35.30;;;;;;;;;;5092844;28;20593;-44
2021/08/16 00:32:41;;;;;;;54.80;33.35;;;;;;;;;;5092718;28;20055;-45
2021/08/16 00:35:07;;;;;;;59.97;35.35;;;;;;;;;;5092613;28;20080;-45
2021/08/16 00:37:33;;;;;;;52.33;31.60;;;;;;;;;;5091676;28;20032;-46
2021/08/16 00:39:59;;;;;;;46.58;27.70;;;;;;;;;;5092500;28;20100;-43
2021/08/16 00:42:26;;;;;;;48.05;29.92;;;;;;;;;;5092761;28;20609;-44
2021/08/16 00:44:52;;;;;;;43.75;28.50;;;;;;;;;;5092437;28;20020;-43
2021/08/16 00:47:19;;;;;;;46.67;29.63;;;;;;;;;;5092439;28;20023;-46
2021/08/16 00:49:45;;;;;;;47.35;27.52;;;;;;;;;;5092441;28;20394;-44
2021/08/16 00:52:11;;;;;;;44.03;26.48;;;;;;;;;;5092526;28;20063;-46
2021/08/16 00:54:38;;;;;;;41.80;26.35;;;;;;;;;;5092587;28;20024;-45
2021/08/16 00:57:05;;;;;;;45.67;27.05;;;;;;;;;;5092684;28;20020;-44
2021/08/16 00:59:32;;;;;;;39.47;24.58;;;;;;;;;;5092628;28;20237;-44
2021/08/16 01:01:58;;;;;;;43.03;27.25;;;;;;;;;;5092512;28;20743;-45
2021/08/16 01:04:28;;;;;;;45.65;28.80;;;;;;;;;;5092365;28;20035;-44
2021/08/16 01:06:54;;;;;;;42.80;28.75;;;;;;;;;;5092215;28;20024;-45
2021/08/16 01:09:20;;;;;;;40.28;26.08;;;;;;;;;;5092214;28;20460;-44
2021/08/16 01:11:48;;;;;;;39.25;24.58;;;;;;;;;;5092251;28;20036;-44
2021/08/16 01:14:14;;;;;;;35.55;23.83;;;;;;;;;;5092434;28;20055;-44
2021/08/16 01:16:40;;;;;;;36.55;22.95;;;;;;;;;;5092242;28;20056;-44
2021/08/16 01:19:06;;;;;;;30.70;20.40;;;;;;;;;;5091883;28;20048;-44
2021/08/16 01:21:32;;;;;;;34.28;20.67;;;;;;;;;;5091922;28;20451;-43
2021/08/16 01:23:58;;;;;;;30.30;20.20;;;;;;;;;;5091909;28;20024;-44
2021/08/16 01:26:25;;;;;;;32.33;20.35;;;;;;;;;;5091838;28;20097;-44
2021/08/16 01:28:51;;;;;;;28.40;20.05;;;;;;;;;;5091804;28;20016;-45
2021/08/16 01:31:17;;;;;;;33.75;20.65;;;;;;;;;;5091750;28;20081;-44
2021/08/16 01:33:43;;;;;;;29.67;20.75;;;;;;;;;;5091752;28;20134;-44
2021/08/16 01:36:09;;;;;;;31.00;19.33;;;;;;;;;;5091728;28;20023;-45
2021/08/16 01:38:37;;;;;;;27.38;18.48;;;;;;;;;;5091708;28;20024;-46
2021/08/16 01:41:04;;;;;;;23.33;17.20;;;;;;;;;;5091754;28;20024;-44
2021/08/16 01:43:30;;;;;;;28.30;18.38;;;;;;;;;;5091727;28;20032;-44
2021/08/16 01:45:56;;;;;;;31.10;20.17;;;;;;;;;;5091755;28;20032;-44
2021/08/16 01:48:22;;;;;;;29.42;20.05;;;;;;;;;;5091707;28;20073;-43
2021/08/16 01:50:48;;;;;;;31.17;21.38;;;;;;;;;;5095804;28;20031;-45
2021/08/16 01:53:14;;;;;;;29.35;20.63;;;;;;;;;;5095779;28;20024;-44
2021/08/16 01:55:40;;;;;;;30.08;19.63;;;;;;;;;;5095756;28;20020;-45
2021/08/16 01:58:07;;;;;;;31.50;20.20;;;;;;;;;;5095603;28;20032;-47
2021/08/16 02:00:33;;;;;;;29.52;18.20;;;;;;;;;;5095651;28;20040;-45
2021/08/16 02:02:59;;;;;;;24.42;17.40;;;;;;;;;;5095667;28;20024;-46
2021/08/16 02:05:25;;;;;;;21.05;14.75;;;;;;;;;;5095532;28;20032;-44
2021/08/16 02:07:51;;;;;;;27.08;16.20;;;;;;;;;;5095569;28;20064;-44
2021/08/16 02:10:18;;;;;;;30.17;18.80;;;;;;;;;;5095542;28;20387;-45
2021/08/16 02:12:44;;;;;;;33.00;20.00;;;;;;;;;;5077362;28;20020;-44
2021/08/16 02:15:11;;;;;;;26.75;17.52;;;;;;;;;;5095528;28;20027;-44
2021/08/16 02:17:37;;;;;;;26.60;17.58;;;;;;;;;;5095139;28;20040;-44
2021/08/16 02:20:04;;;;;;;26.05;17.08;;;;;;;;;;5077119;28;20028;-44
2021/08/16 02:22:30;;;;;;;34.50;21.10;;;;;;;;;;5095308;28;20069;-44
2021/08/16 02:24:56;;;;;;;25.73;16.85;;;;;;;;;;5095358;28;20024;-44
2021/08/16 02:27:23;;;;;;;28.58;17.75;;;;;;;;;;5095491;28;20012;-45
2021/08/16 02:29:49;;;;;;;27.75;18.65;;;;;;;;;;5095259;28;20023;-46
2021/08/16 02:32:15;;;;;;;33.55;21.65;;;;;;;;;;5095102;28;20356;-45
2021/08/16 02:34:41;;;;;;;29.33;17.75;;;;;;;;;;5095026;28;20020;-46
2021/08/16 02:37:07;;;;;;;34.05;19.30;;;;;;;;;;5094983;28;20024;-46
2021/08/16 02:39:33;;;;;;;29.65;18.85;;;;;;;;;;5095003;28;20020;-44
2021/08/16 02:41:59;;;;;;;36.75;22.05;;;;;;;;;;5095084;28;20382;-43
2021/08/16 02:44:25;;;;;;;38.85;25.83;;;;;;;;;;5094826;28;20384;-44
2021/08/16 02:46:51;;;;;;;42.30;24.90;;;;;;;;;;5094907;28;20035;-43
2021/08/16 02:49:17;;;;;;;42.17;22.50;;;;;;;;;;5094690;28;20020;-44
2021/08/16 02:51:43;;;;;;;40.38;21.27;;;;;;;;;;5094636;28;20032;-44
2021/08/16 02:54:09;;;;;;;36.03;19.83;;;;;;;;;;5094555;28;20023;-43
2021/08/16 02:56:35;;;;;;;33.72;20.13;;;;;;;;;;5094630;28;20028;-44
2021/08/16 02:59:01;;;;;;;29.50;19.17;;;;;;;;;;5094626;28;20031;-45
2021/08/16 03:01:27;;;;;;;25.90;17.80;;;;;;;;;;5093405;28;20028;-44
2021/08/16 03:03:53;;;;;;;28.73;17.77;;;;;;;;;;5094488;28;20065;-44
2021/08/16 03:06:20;;;;;;;28.08;18.35;;;;;;;;;;5094463;28;20028;-45
2021/08/16 03:08:46;;;;;;;28.27;19.05;;;;;;;;;;5094571;28;20028;-45
2021/08/16 03:11:12;;;;;;;27.10;18.70;;;;;;;;;;5076178;28;20028;-44
2021/08/16 03:13:38;;;;;;;28.60;19.00;;;;;;;;;;5094169;28;20074;-44
2021/08/16 03:16:04;;;;;;;30.08;19.67;;;;;;;;;;5094398;28;20356;-44
2021/08/16 03:18:31;;;;;;;30.65;20.08;;;;;;;;;;5075904;28;20040;-43
2021/08/16 03:20:57;;;;;;;31.40;18.27;;;;;;;;;;5094428;28;20047;-43
2021/08/16 03:23:23;;;;;;;30.23;18.42;;;;;;;;;;5094316;28;20028;-44
2021/08/16 03:25:49;;;;;;;25.52;17.35;;;;;;;;;;5094444;28;20835;-44
2021/08/16 03:28:15;;;;;;;32.08;18.77;;;;;;;;;;5076099;28;20041;-45
2021/08/16 03:30:45;;;;;;;35.33;21.02;;;;;;;;;;5093863;28;20055;-45
2021/08/16 03:33:11;;;;;;;31.00;17.38;;;;;;;;;;5094171;28;20017;-45
2021/08/16 03:35:37;;;;;;;28.63;19.48;;;;;;;;;;5075879;28;20755;-43
2021/08/16 03:38:03;;;;;;;25.02;18.23;;;;;;;;;;5093799;28;20020;-44
2021/08/16 03:40:29;;;;;;;26.85;19.30;;;;;;;;;;5093661;28;20021;-44
2021/08/16 03:42:55;;;;;;;25.65;17.38;;;;;;;;;;5093825;28;20024;-43
2021/08/16 03:45:21;;;;;;;23.90;16.35;;;;;;;;;;5093576;28;20024;-44
2021/08/16 03:47:47;;;;;;;29.52;17.25;;;;;;;;;;5093461;28;20448;-46
2021/08/16 03:50:13;;;;;;;26.98;17.88;;;;;;;;;;5093444;28;20025;-44
2021/08/16 03:52:39;;;;;;;21.90;15.25;;;;;;;;;;5093532;28;20054;-46
2021/08/16 03:55:06;;;;;;;25.10;15.27;;;;;;;;;;5075451;28;20028;-47
2021/08/16 03:57:32;;;;;;;22.77;15.75;;;;;;;;;;5093289;28;20479;-45
2021/08/16 03:59:58;;;;;;;29.95;17.27;;;;;;;;;;5093248;28;20028;-44
2021/08/16 04:02:24;;;;;;;27.70;17.45;;;;;;;;;;5093222;28;20032;-46
2021/08/16 04:04:50;;;;;;;25.33;15.75;;;;;;;;;;5093076;28;20079;-44
2021/08/16 04:07:16;;;;;;;20.88;15.05;;;;;;;;;;5093082;28;20036;-45
2021/08/16 04:09:42;;;;;;;19.58;12.90;;;;;;;;;;5093114;28;20032;-43
2021/08/16 04:12:08;;;;;;;23.67;15.75;;;;;;;;;;5092752;28;20092;-43
2021/08/16 04:14:34;;;;;;;21.65;15.38;;;;;;;;;;5074788;28;20035;-45
2021/08/16 04:17:00;;;;;;;27.30;16.63;;;;;;;;;;5092718;28;20513;-45
2021/08/16 04:19:26;;;;;;;25.35;15.50;;;;;;;;;;5092819;28;20494;-46
2021/08/16 04:21:52;;;;;;;23.17;14.45;;;;;;;;;;5074569;28;20064;-45
2021/08/16 04:24:18;;;;;;;24.30;15.82;;;;;;;;;;5092884;28;20024;-44
2021/08/16 04:26:44;;;;;;;25.90;15.60;;;;;;;;;;5092882;28;20036;-44
2021/08/16 04:29:10;;;;;;;25.80;15.88;;;;;;;;;;5092895;28;20028;-45
2021/08/16 04:31:37;;;;;;;21.65;15.38;;;;;;;;;;5092787;28;20028;-44
2021/08/16 04:34:03;;;;;;;23.27;15.55;;;;;;;;;;5092903;28;20529;-44
2021/08/16 04:36:29;;;;;;;30.38;17.63;;;;;;;;;;5092518;28;20429;-45
2021/08/16 04:38:55;;;;;;;24.38;15.70;;;;;;;;;;5092367;28;20459;-44
2021/08/16 04:41:21;;;;;;;23.58;15.00;;;;;;;;;;5092403;28;20020;-43
2021/08/16 04:43:47;;;;;;;26.20;16.70;;;;;;;;;;5092315;28;20028;-45
2021/08/16 04:46:13;;;;;;;27.95;16.85;;;;;;;;;;5092302;28;20032;-45
2021/08/16 04:48:39;;;;;;;24.58;15.40;;;;;;;;;;5092321;28;20024;-45
2021/08/16 04:51:05;;;;;;;26.05;16.27;;;;;;;;;;5092091;28;20055;-44
2021/08/16 04:53:31;;;;;;;23.40;16.20;;;;;;;;;;5092175;28;20024;-44
2021/08/16 04:55:57;;;;;;;31.83;18.50;;;;;;;;;;5092175;28;20082;-46
2021/08/16 04:58:23;;;;;;;29.70;17.35;;;;;;;;;;5091964;28;20024;-45
2021/08/16 05:00:49;;;;;;;31.60;20.17;;;;;;;;;;5092150;28;20066;-47
2021/08/16 05:03:15;;;;;;;32.45;20.17;;;;;;;;;;5092056;28;20027;-44
2021/08/16 05:05:48;;;;;;;38.42;20.17;;;;;;;;;;5092190;28;20020;-43
2021/08/16 05:08:14;;;;;;;33.58;20.77;;;;;;;;;;5091921;28;20475;-45
2021/08/16 05:10:40;;;;;;;36.70;23.13;;;;;;;;;;5091883;28;20114;-45
2021/08/16 05:13:07;;;;;;;36.88;22.20;;;;;;;;;;5092325;28;20048;-43
2021/08/16 05:15:33;;;;;;;40.33;24.35;;;;;;;;;;5091741;28;20016;-44
2021/08/16 05:18:02;;;;;;;37.58;21.15;;;;;;;;;;5091677;28;20044;-45
2021/08/16 05:20:28;;;;;;;28.67;18.73;;;;;;;;;;5091611;28;20028;-45
2021/08/16 05:22:54;;;;;;;27.95;17.52;;;;;;;;;;5091713;28;20020;-45
2021/08/16 05:25:20;;;;;;;29.48;18.52;;;;;;;;;;5091272;28;20012;-46
2021/08/16 05:27:47;;;;;;;25.52;16.58;;;;;;;;;;5091697;28;20085;-44
2021/08/16 05:30:13;;;;;;;29.13;18.65;;;;;;;;;;5091699;28;20098;-44
2021/08/16 05:32:40;;;;;;;23.25;15.48;;;;;;;;;;5091770;28;20043;-45
2021/08/16 05:35:06;;;;;;;31.27;18.35;;;;;;;;;;5092006;28;20031;-44
2021/08/16 05:37:32;;;;;;;20.70;14.70;;;;;;;;;;5091628;28;20020;-44
2021/08/16 05:39:58;;;;;;;35.40;19.33;;;;;;;;;;5091486;28;20445;-44
2021/08/16 05:42:24;;;;;;;23.55;16.50;;;;;;;;;;5091584;28;20533;-47
2021/08/16 05:44:50;;;;;;;29.80;19.17;;;;;;;;;;5091485;28;20020;-46
2021/08/16 05:47:16;;;;;;;32.20;19.73;;;;;;;;;;5091521;28;20024;-48
2021/08/16 05:49:43;;;;;;;33.65;19.08;;;;;;;;;;5091668;28;20024;-46
2021/08/16 05:52:09;;;;;;;29.98;18.80;;;;;;;;;;5091400;28;20020;-45
2021/08/16 05:54:35;;;;;;;38.63;20.58;;;;;;;;;;5091561;28;20108;-44
2021/08/16 05:57:01;;;;;;;36.78;19.02;;;;;;;;;;5091614;28;20463;-45
2021/08/16 05:59:27;;;;;;;29.40;17.83;;;;;;;;;;5091688;28;20031;-44
2021/08/16 06:01:53;;;;;;;29.05;18.58;;;;;;;;;;5091388;28;20035;-44
2021/08/16 06:04:19;;;;;;;32.70;17.30;;;;;;;;;;5091328;28;20073;-45
2021/08/16 06:06:45;;;;;;;24.40;16.17;;;;;;;;;;5091234;28;20089;-44
2021/08/16 06:09:12;;;;;;;23.80;15.93;;;;;;;;;;5091268;28;20039;-45
2021/08/16 06:24:15;;;;;;;25.27;15.05;;;;;;;;;;5109140;27;20484;-44
2021/08/16 06:26:41;;;;;;;23.35;14.07;;;;;;;;;;5109209;28;20357;-47
2021/08/16 06:29:07;;;;;;;34.72;16.60;;;;;;;;;;5109242;28;20036;-45
2021/08/16 06:31:34;;;;;;;33.38;17.60;;;;;;;;;;5107771;28;20544;-47
2021/08/16 06:34:00;;;;;;;28.98;17.45;;;;;;;;;;5108910;28;20024;-44
2021/08/16 06:36:26;;;;;;;30.70;15.95;;;;;;;;;;5109126;28;20045;-44
2021/08/16 06:38:53;;;;;;;22.08;16.10;;;;;;;;;;5108940;28;20019;-48
2021/08/16 06:41:19;;;;;;;29.42;17.77;;;;;;;;;;5108970;28;20048;-45
2021/08/16 06:43:46;;;;;;;26.75;14.82;;;;;;;;;;5109063;28;20440;-44
2021/08/16 06:46:13;;;;;;;26.80;16.33;;;;;;;;;;5108852;28;20027;-44
2021/08/16 06:48:39;;;;;;;23.17;15.52;;;;;;;;;;5108806;28;20106;-46
2021/08/16 06:51:05;;;;;;;24.48;14.93;;;;;;;;;;5108726;28;20073;-46
2021/08/16 06:53:31;;;;;;;25.13;14.88;;;;;;;;;;5108629;28;20027;-46
2021/08/16 06:55:57;;;;;;;26.40;15.13;;;;;;;;;;5108688;28;20052;-45
2021/08/16 06:58:23;;;;;;;23.75;16.40;;;;;;;;;;5107403;28;20034;-45
2021/08/16 07:00:50;;;;;;;25.30;16.63;;;;;;;;;;5107295;28;20456;-45
2021/08/16 07:03:16;;;;;;;24.10;16.10;;;;;;;;;;5108623;28;20032;-45
2021/08/16 07:05:43;;;;;;;26.23;16.23;;;;;;;;;;5108570;28;20499;-47
2021/08/16 07:08:09;;;;;;;26.77;16.05;;;;;;;;;;5107158;28;20055;-46
2021/08/16 07:10:35;;;;;;;19.85;14.55;;;;;;;;;;5107211;28;20028;-46
2021/08/16 07:13:01;;;;;;;24.23;14.60;;;;;;;;;;5107139;28;20340;-45
2021/08/16 07:15:27;;;;;;;21.63;15.85;;;;;;;;;;5107078;28;20118;-45
2021/08/16 07:17:53;;;;;;;22.15;14.90;;;;;;;;;;5107065;28;20016;-47
2021/08/16 07:20:20;;;;;;;19.80;13.77;;;;;;;;;;5106907;28;20490;-47
2021/08/16 07:22:46;;;;;;;18.40;12.80;;;;;;;;;;5106555;28;20048;-45
2021/08/16 07:25:12;;;;;;;17.20;12.68;;;;;;;;;;5094857;28;20020;-48
2021/08/16 07:27:38;;;;;;;19.55;14.43;;;;;;;;;;5094457;28;20024;-46
2021/08/16 07:30:04;;;;;;;19.88;12.98;;;;;;;;;;5094574;28;20077;-45
2021/08/16 07:32:30;;;;;;;18.58;12.32;;;;;;;;;;5094361;28;20427;-46
2021/08/16 07:34:56;;;;;;;19.80;13.50;;;;;;;;;;5094313;28;20024;-44
2021/08/16 07:37:22;;;;;;;16.20;12.10;;;;;;;;;;5094211;28;20415;-45
2021/08/16 07:39:48;;;;;;;24.27;14.80;;;;;;;;;;5094384;28;20031;-45
2021/08/16 07:42:14;;;;;;;17.33;13.13;;;;;;;;;;5093013;28;20024;-45
2021/08/16 07:44:40;;;;;;;14.93;11.77;;;;;;;;;;5094198;28;20376;-47
2021/08/16 07:47:06;;;;;;;16.50;12.50;;;;;;;;;;5094179;28;20597;-45
2021/08/16 07:49:33;;;;;;;18.77;13.98;;;;;;;;;;5094150;28;20031;-44
2021/08/16 07:51:59;;;;;;;16.15;10.98;;;;;;;;;;5093898;28;20024;-46
2021/08/16 07:54:25;;;;;;;20.42;12.30;;;;;;;;;;5094035;28;20101;-45
2021/08/16 07:56:51;;;;;;;15.80;11.35;;;;;;;;;;5093808;28;20024;-45
2021/08/16 07:59:18;;;;;;;16.77;11.10;;;;;;;;;;5093818;28;20028;-49
2021/08/16 08:01:44;;;;;;;16.65;10.70;;;;;;;;;;5093738;28;20020;-44
2021/08/16 08:04:10;;;;;;;21.77;10.98;;;;;;;;;;5093586;28;20451;-46
2021/08/16 08:06:36;;;;;;;20.42;11.38;;;;;;;;;;5093700;28;20024;-44
2021/08/16 08:09:02;;;;;;;29.33;12.80;;;;;;;;;;5093873;28;20081;-48
2021/08/16 08:11:28;;;;;;;20.30;11.55;;;;;;;;;;5093767;28;20373;-47
2021/08/16 08:13:54;;;;;;;26.17;11.85;;;;;;;;;;5093925;28;20020;-45
2021/08/16 08:16:20;;;;;;;24.50;11.68;;;;;;;;;;5093936;28;20028;-46
2021/08/16 08:18:46;;;;;;;19.05;11.00;;;;;;;;;;5093359;28;20027;-46
2021/08/16 08:21:12;;;;;;;17.17;11.07;;;;;;;;;;5092107;28;20392;-44
2021/08/16 08:23:38;;;;;;;33.53;16.65;;;;;;;;;;5093321;28;20117;-44
2021/08/16 08:26:04;;;;;;;61.75;28.23;;;;;;;;;;5093315;28;20521;-48
2021/08/16 08:28:31;;;;;;;65.85;30.98;;;;;;;;;;5093230;28;20464;-44
2021/08/16 08:30:57;;;;;;;47.28;24.23;;;;;;;;;;5093310;28;20035;-47
2021/08/16 08:33:23;;;;;;;49.20;24.63;;;;;;;;;;5091738;28;20400;-46
2021/08/16 08:35:51;;;;;;;41.08;21.10;;;;;;;;;;5092006;28;20055;-47
2021/08/16 08:38:17;;;;;;;35.80;18.80;;;;;;;;;;5091920;28;20028;-46
2021/08/16 08:40:44;;;;;;;31.65;14.95;;;;;;;;;;5093103;28;20435;-45
2021/08/16 08:43:11;;;;;;;29.45;16.25;;;;;;;;;;5092908;28;20077;-46
2021/08/16 08:45:38;;;;;;;28.98;15.68;;;;;;;;;;5092897;28;20028;-45
2021/08/16 08:48:04;;;;;;;25.65;13.57;;;;;;;;;;5092904;28;20028;-46
2021/08/16 08:50:30;;;;;;;25.85;13.20;;;;;;;;;;5091628;28;20107;-46
2021/08/16 08:53:01;;;;;;;20.50;10.80;;;;;;;;;;5092668;28;20020;-45
2021/08/16 08:55:27;;;;;;;16.70;9.23;;;;;;;;;;5074741;28;20587;-45
2021/08/16 08:57:53;;;;;;;13.68;8.82;;;;;;;;;;5092710;28;20052;-46
2021/08/16 09:00:19;;;;;;;11.77;8.20;;;;;;;;;;5092697;28;20082;-45
2021/08/16 09:02:59;;;;;;;13.32;7.88;;;;;;;;;;5092503;28;20024;-45
2021/08/16 09:05:25;;;;;;;11.25;8.10;;;;;;;;;;5092577;28;20027;-44
2021/08/16 09:07:51;;;;;;;22.70;8.15;;;;;;;;;;5092578;28;20081;-46
2021/08/16 09:10:18;;;;;;;12.35;7.22;;;;;;;;;;5092636;28;20111;-43
2021/08/16 09:12:46;;;;;;;10.60;7.85;;;;;;;;;;5091131;28;20063;-45
2021/08/16 09:15:23;;;;;;;10.70;7.03;;;;;;;;;;5092301;28;20026;-44
2021/08/16 09:17:49;;;;;;;14.98;7.40;;;;;;;;;;5092221;28;20020;-45
2021/08/16 09:20:23;;;;;;;15.18;6.90;;;;;;;;;;5092244;28;20082;-45
2021/08/16 09:22:49;;;;;;;;;;;;;;;;;;5092363;28;20056;-46
2021/08/16 09:25:19;;;;;;;7.95;5.72;;;;;;;;;;5092031;28;19959;-46
2021/08/16 09:27:48;;;;;;;7.60;5.97;;;;;;;;;;5091966;28;20055;-45
2021/08/16 09:30:15;;;;;;;11.85;6.35;;;;;;;;;;5090861;28;20028;-46
2021/08/16 09:32:43;;;;;;;8.85;6.07;;;;;;;;;;5092229;28;20097;-44
2021/08/16 09:35:10;;;;;;;8.75;6.90;;;;;;;;;;5090730;28;20024;-46
2021/08/16 09:37:36;;;;;;;8.43;6.65;;;;;;;;;;5092100;28;20024;-46
2021/08/16 09:40:14;;;;;;;10.95;6.07;;;;;;;;;;5092043;28;20101;-46
2021/08/16 09:42:43;;;;;;;9.10;6.47;;;;;;;;;;5091731;28;20038;-45
2021/08/16 09:45:11;;;;;;;12.80;6.60;;;;;;;;;;5091824;28;20107;-48
2021/08/16 09:47:41;;;;;;;7.20;5.53;;;;;;;;;;5091496;28;20052;-45
2021/08/16 09:50:07;;;;;;;8.68;5.95;;;;;;;;;;5091652;28;20462;-45
2021/08/16 09:52:33;;;;;;;10.15;7.07;;;;;;;;;;5091538;28;20028;-45
2021/08/16 09:55:00;;;;;;;7.82;6.07;;;;;;;;;;5091523;28;20035;-44
2021/08/16 09:57:27;;;;;;;14.10;6.32;;;;;;;;;;5091568;28;20066;-45
2021/08/16 09:59:55;;;;;;;13.98;6.18;;;;;;;;;;5091696;28;20085;-44
2021/08/16 10:02:22;;;;;;;10.00;6.18;;;;;;;;;;5091521;28;20024;-47
2021/08/16 10:04:48;;;;;;;13.05;6.70;;;;;;;;;;5091597;28;20032;-45
2021/08/16 10:07:14;;;;;;;17.15;6.25;;;;;;;;;;5090175;28;20020;-45
2021/08/16 10:09:40;;;;;;;8.32;5.60;;;;;;;;;;5091477;28;20020;-45
2021/08/16 10:12:06;;;;;;;11.88;6.20;;;;;;;;;;5091331;28;20024;-45
2021/08/16 10:14:33;;;;;;;7.55;5.82;;;;;;;;;;5091478;28;20024;-45
2021/08/16 10:17:00;;;;;;;10.43;6.65;;;;;;;;;;5091389;28;20361;-45
2021/08/16 10:19:30;;;;;;;9.45;5.90;;;;;;;;;;5091533;28;20024;-44
2021/08/16 10:21:59;;;;;;;8.02;5.45;;;;;;;;;;5089848;28;20040;-45
2021/08/16 10:24:28;;;;;;;7.03;5.97;;;;;;;;;;5091455;28;20115;-47
2021/08/16 10:27:04;;;;;;;8.23;5.85;;;;;;;;;;5092551;28;20028;-44
2021/08/16 10:29:31;;;;;;;14.60;5.70;;;;;;;;;;5091354;28;20055;-46
2021/08/16 10:31:59;;;;;;;10.30;6.38;;;;;;;;;;5091310;28;20035;-44
2021/08/16 10:34:26;;;;;;;7.15;5.50;;;;;;;;;;5091189;28;20122;-44
2021/08/16 10:36:56;;;;;;;7.75;5.93;;;;;;;;;;5091345;28;20024;-48
2021/08/16 10:39:32;;;;;;;9.40;5.85;;;;;;;;;;5091057;28;20468;-45
2021/08/16 10:42:05;;;;;;;9.13;5.85;;;;;;;;;;5091480;28;20024;-48
2021/08/16 10:44:37;;;;;;;10.67;6.70;;;;;;;;;;5091245;28;20024;-45
2021/08/16 10:47:04;;;;;;;26.33;6.47;;;;;;;;;;5091090;28;20020;-45
2021/08/16 10:49:33;;;;;;;15.02;5.55;;;;;;;;;;5091169;28;20503;-47
2021/08/16 10:51:59;;;;;;;10.07;5.82;;;;;;;;;;5090994;28;20024;-45
2021/08/16 10:54:31;;;;;;;12.38;6.63;;;;;;;;;;5091052;28;20167;-44
2021/08/16 10:56:57;;;;;;;10.15;7.15;;;;;;;;;;5091082;28;20020;-45
2021/08/16 10:59:24;;;;;;;9.20;5.80;;;;;;;;;;5092709;28;20095;-44
2021/08/16 11:01:50;;;;;;;9.85;6.22;;;;;;;;;;5094840;28;20464;-45
2021/08/16 11:04:26;;;;;;;11.75;6.20;;;;;;;;;;5094838;28;20088;-44
2021/08/16 11:07:00;;;;;;;8.80;6.05;;;;;;;;;;5094780;28;20020;-44
2021/08/16 11:09:27;;;;;;;8.32;6.03;;;;;;;;;;5094729;28;20016;-44
2021/08/16 11:11:54;;;;;;;12.75;5.70;;;;;;;;;;5094471;28;20020;-44
2021/08/16 11:14:24;;;;;;;6.85;5.55;;;;;;;;;;5094537;28;20020;-44
2021/08/16 11:16:51;;;;;;;7.00;5.18;;;;;;;;;;5094566;28;20031;-45
2021/08/16 11:19:17;;;;;;;12.40;5.80;;;;;;;;;;5094423;28;20024;-44
2021/08/16 11:21:57;;;;;;;6.55;5.57;;;;;;;;;;5093232;28;20376;-45
2021/08/16 11:24:30;;;;;;;7.68;5.32;;;;;;;;;;5094272;28;20084;-45
2021/08/16 11:26:56;;;;;;;6.90;5.10;;;;;;;;;;5094590;28;20020;-44
2021/08/16 11:29:24;;;;;;;7.68;5.30;;;;;;;;;;5094349;28;20530;-44
2021/08/16 11:31:51;;;;;;;9.40;5.55;;;;;;;;;;5094189;28;20097;-44
2021/08/16 11:34:17;;;;;;;7.50;5.65;;;;;;;;;;5094291;28;20024;-44
2021/08/16 11:36:43;;;;;;;7.65;5.95;;;;;;;;;;5094304;28;20024;-45
2021/08/16 11:39:09;;;;;;;7.15;5.50;;;;;;;;;;5094077;28;20073;-44
2021/08/16 11:41:35;;;;;;;6.32;5.32;;;;;;;;;;5094280;28;20024;-44
2021/08/16 11:44:14;;;;;;;9.38;5.78;;;;;;;;;;5094116;28;20097;-46
2021/08/16 11:46:41;;;;;;;6.13;5.22;;;;;;;;;;5094097;28;20034;-46
2021/08/16 11:49:08;;;;;;;7.10;5.32;;;;;;;;;;5094023;28;20077;-46
2021/08/16 11:51:34;;;;;;;6.60;5.60;;;;;;;;;;5093752;28;20035;-47
2021/08/16 11:54:00;;;;;;;7.28;5.32;;;;;;;;;;5093857;28;20020;-46
2021/08/16 11:56:27;;;;;;;6.20;5.15;;;;;;;;;;5093919;28;20016;-47
2021/08/16 11:58:53;;;;;;;9.55;4.90;;;;;;;;;;5093891;28;20020;-47
2021/08/16 12:01:20;;;;;;;5.57;4.88;;;;;;;;;;5093695;28;20027;-47
2021/08/16 12:03:46;;;;;;;7.05;5.25;;;;;;;;;;5093664;28;20042;-45
2021/08/16 12:06:14;;;;;;;5.63;4.88;;;;;;;;;;5093619;28;20419;-47
2021/08/16 12:08:40;;;;;;;6.82;5.20;;;;;;;;;;5093811;28;20047;-46
2021/08/16 12:11:10;;;;;;;6.03;5.40;;;;;;;;;;5093453;28;20024;-46
2021/08/16 12:13:36;;;;;;;6.13;5.18;;;;;;;;;;5093312;28;20020;-44
2021/08/16 12:16:02;;;;;;;6.55;5.40;;;;;;;;;;5093473;28;20426;-46
2021/08/16 12:18:30;;;;;;;6.35;5.25;;;;;;;;;;5092043;28;20020;-45
2021/08/16 12:20:57;;;;;;;5.70;5.20;;;;;;;;;;5093487;28;20107;-44
2021/08/16 12:23:33;;;;;;;7.78;5.72;;;;;;;;;;5093090;28;20106;-44
2021/08/16 12:26:01;;;;;;;5.18;4.60;;;;;;;;;;5093182;28;20028;-45
2021/08/16 12:28:40;;;;;;;6.72;4.43;;;;;;;;;;5093182;28;20028;-45
2021/08/16 12:31:13;;;;;;;7.47;4.65;;;;;;;;;;5091693;28;20079;-45
2021/08/16 12:33:39;;;;;;;5.45;4.47;;;;;;;;;;5092975;28;20028;-47
2021/08/16 12:36:05;;;;;;;5.85;4.50;;;;;;;;;;5093275;28;20024;-44
2021/08/16 12:38:32;;;;;;;13.05;4.50;;;;;;;;;;5093205;28;20028;-45
2021/08/16 12:40:58;;;;;;;6.40;4.60;;;;;;;;;;5093154;28;20024;-45
2021/08/16 12:43:35;;;;;;;5.03;4.53;;;;;;;;;;5093133;28;20062;-45
2021/08/16 12:46:01;;;;;;;5.28;4.60;;;;;;;;;;5092762;28;20031;-43
2021/08/16 12:48:36;;;;;;;5.07;4.38;;;;;;;;;;5092920;28;20020;-48
2021/08/16 12:51:02;;;;;;;6.28;4.55;;;;;;;;;;5092666;28;20027;-44
2021/08/16 12:53:28;;;;;;;5.10;4.57;;;;;;;;;;5092666;28;20103;-44
2021/08/16 12:55:57;;;;;;;4.30;3.97;;;;;;;;;;5092699;28;20396;-45
2021/08/16 12:58:23;;;;;;;5.35;4.28;;;;;;;;;;5092523;28;20047;-47
2021/08/16 13:00:49;;;;;;;5.28;4.05;;;;;;;;;;5092568;28;20464;-44
2021/08/16 13:03:15;;;;;;;3.97;3.67;;;;;;;;;;5092576;28;20028;-45
2021/08/16 13:05:41;;;;;;;4.07;3.67;;;;;;;;;;5092405;28;20031;-46
2021/08/16 13:08:07;;;;;;;4.25;3.60;;;;;;;;;;5092455;28;20399;-44
2021/08/16 13:10:35;;;;;;;4.78;4.22;;;;;;;;;;5092507;28;20032;-44
2021/08/16 13:13:01;;;;;;;5.38;3.97;;;;;;;;;;5092164;28;20031;-45
2021/08/16 13:15:27;;;;;;;9.30;4.15;;;;;;;;;;5092438;28;20020;-46
2021/08/16 13:17:53;;;;;;;4.40;4.00;;;;;;;;;;5092287;28;20032;-46
2021/08/16 13:20:19;;;;;;;3.47;3.17;;;;;;;;;;5092201;28;20020;-45
2021/08/16 13:22:45;;;;;;;4.57;3.90;;;;;;;;;;5091621;28;20052;-47
2021/08/16 13:25:11;;;;;;;3.92;3.55;;;;;;;;;;5092140;28;20027;-47
2021/08/16 13:27:39;;;;;;;4.00;3.60;;;;;;;;;;5092024;28;20031;-47
2021/08/16 13:30:05;;;;;;;4.07;3.50;;;;;;;;;;5092212;28;20038;-49
2021/08/16 13:32:31;;;;;;;4.55;3.53;;;;;;;;;;5091926;28;20027;-44
2021/08/16 13:34:57;;;;;;;3.92;3.50;;;;;;;;;;5092007;28;20032;-44
2021/08/16 13:37:23;;;;;;;4.85;3.95;;;;;;;;;;5091981;28;20086;-45
2021/08/16 13:39:49;;;;;;;4.70;4.22;;;;;;;;;;5091823;28;20470;-46
2021/08/16 13:42:16;;;;;;;4.78;4.35;;;;;;;;;;5092001;28;20036;-46
2021/08/16 13:44:42;;;;;;;5.13;3.80;;;;;;;;;;5091874;28;20033;-45
2021/08/16 13:47:08;;;;;;;3.58;3.28;;;;;;;;;;5092260;28;20498;-45
2021/08/16 13:49:34;;;;;;;4.13;3.63;;;;;;;;;;5092152;28;20286;-44
2021/08/16 13:52:00;;;;;;;3.95;3.58;;;;;;;;;;5091711;28;20471;-43
2021/08/16 13:54:26;;;;;;;3.90;3.60;;;;;;;;;;5091601;28;20017;-45
2021/08/16 13:56:52;;;;;;;5.70;3.95;;;;;;;;;;5091672;28;20016;-45
2021/08/16 13:59:18;;;;;;;4.38;3.97;;;;;;;;;;5091527;28;20034;-45
2021/08/16 14:01:44;;;;;;;4.55;3.63;;;;;;;;;;5091658;28;20099;-47
2021/08/16 14:04:10;;;;;;;5.88;4.03;;;;;;;;;;5091626;28;20472;-48
2021/08/16 14:06:36;;;;;;;4.45;3.83;;;;;;;;;;5091540;28;20031;-45
2021/08/16 14:09:02;;;;;;;4.00;3.65;;;;;;;;;;5091577;28;20074;-48
2021/08/16 14:11:28;;;;;;;6.45;3.80;;;;;;;;;;5091578;28;20031;-46
2021/08/16 14:13:54;;;;;;;4.28;3.20;;;;;;;;;;5091415;28;20074;-46
2021/08/16 14:16:21;;;;;;;5.47;3.80;;;;;;;;;;5091386;28;20077;-48
2021/08/16 14:18:47;;;;;;;4.38;3.55;;;;;;;;;;5091481;28;20028;-45
2021/08/16 14:21:13;;;;;;;3.97;3.67;;;;;;;;;;5091303;28;20085;-45
2021/08/16 14:23:39;;;;;;;4.05;3.55;;;;;;;;;;5091009;28;20070;-48
2021/08/16 14:26:11;;;;;;;5.78;3.90;;;;;;;;;;5090142;28;20082;-45
2021/08/16 14:28:37;;;;;;;4.88;4.22;;;;;;;;;;5091449;28;20024;-47
2021/08/16 14:31:04;;;;;;;3.75;3.42;;;;;;;;;;5090084;28;20032;-45
2021/08/16 14:33:31;;;;;;;4.00;3.70;;;;;;;;;;5091720;28;20024;-44
2021/08/16 14:35:57;;;;;;;6.53;3.53;;;;;;;;;;5094111;28;20024;-46